createdAt,value
2016-08-14T00:01:00.347Z,19.76
2016-08-14T00:01:59.684Z,19.73
2016-08-14T00:02:59.722Z,19.76
2016-08-14T00:03:59.735Z,19.69
2016-08-14T00:04:59.762Z,19.74
2016-08-14T00:05:59.799Z,19.63
2016-08-14T00:06:59.819Z,19.69
2016-08-14T00:07:59.847Z,19.66
2016-08-14T00:08:59.873Z,19.77
2016-08-14T00:09:59.903Z,19.73
2016-08-14T00:10:59.925Z,19.74
2016-08-14T00:12:14.871Z,19.63
2016-08-14T00:12:59.979Z,19.69
2016-08-14T00:14:00.011Z,19.76
2016-08-14T00:15:00.727Z,19.63
2016-08-14T00:16:00.057Z,19.81
2016-08-14T00:17:00.082Z,19.56
2016-08-14T00:18:00.117Z,19.63
2016-08-14T00:20:00.166Z,19.58
2016-08-14T00:21:00.194Z,19.68
2016-08-14T00:22:00.227Z,19.59
2016-08-14T00:23:00.243Z,19.68
2016-08-14T00:24:00.270Z,19.55
2016-08-14T00:25:00.310Z,19.59
2016-08-14T00:26:00.324Z,19.58
2016-08-14T00:27:00.364Z,19.61
2016-08-14T00:28:15.315Z,19.55
2016-08-14T00:29:15.330Z,19.61
2016-08-14T00:30:00.434Z,19.55
2016-08-14T00:31:00.465Z,19.5
2016-08-14T00:32:00.493Z,19.48
2016-08-14T00:33:00.515Z,19.55
2016-08-14T00:34:00.542Z,19.51
2016-08-14T00:35:01.268Z,19.51
2016-08-14T00:36:00.596Z,19.58
2016-08-14T00:37:00.620Z,19.58
2016-08-14T00:38:00.647Z,19.61
2016-08-14T00:39:00.674Z,19.58
2016-08-14T00:41:00.721Z,19.58
2016-08-14T00:42:00.762Z,19.61
2016-08-14T00:43:15.705Z,19.55
2016-08-14T00:44:00.806Z,19.56
2016-08-14T00:45:00.846Z,19.5
2016-08-14T00:46:00.864Z,19.55
2016-08-14T00:47:00.887Z,19.44
2016-08-14T00:48:00.938Z,19.4
2016-08-14T00:49:00.936Z,19.4
2016-08-14T00:50:01.016Z,19.37
2016-08-14T00:51:00.993Z,19.28
2016-08-14T00:52:01.018Z,19.31
2016-08-14T00:53:01.054Z,19.32
2016-08-14T00:54:01.074Z,19.28
2016-08-14T00:55:01.099Z,19.28
2016-08-14T00:56:01.132Z,19.33
2016-08-14T00:57:01.209Z,19.33
2016-08-14T00:58:01.179Z,19.32
2016-08-14T00:59:01.209Z,19.32
2016-08-14T01:00:01.229Z,19.43
2016-08-14T01:01:01.263Z,19.36
2016-08-14T01:02:01.286Z,19.33
2016-08-14T01:03:01.311Z,19.32
2016-08-14T01:04:01.342Z,19.4
2016-08-14T01:05:01.368Z,19.32
2016-08-14T01:06:01.396Z,19.31
2016-08-14T01:07:01.424Z,19.32
2016-08-14T01:08:01.448Z,19.32
2016-08-14T01:09:01.478Z,19.33
2016-08-14T01:10:01.506Z,19.31
2016-08-14T01:11:01.531Z,19.32
2016-08-14T01:12:01.558Z,19.4
2016-08-14T01:13:01.575Z,19.29
2016-08-14T01:14:01.603Z,19.29
2016-08-14T01:15:16.556Z,19.28
2016-08-14T01:16:01.658Z,19.32
2016-08-14T01:17:01.692Z,19.28
2016-08-14T01:18:01.712Z,19.36
2016-08-14T01:19:01.739Z,19.21
2016-08-14T01:20:01.764Z,19.25
2016-08-14T01:21:01.794Z,19.18
2016-08-14T01:22:01.815Z,19.22
2016-08-14T01:23:01.854Z,19.14
2016-08-14T01:24:01.873Z,19.21
2016-08-14T01:25:01.909Z,19.11
2016-08-14T01:26:01.924Z,19.11
2016-08-14T01:27:01.962Z,19.11
2016-08-14T01:28:01.977Z,19.04
2016-08-14T01:29:02.004Z,19.06
2016-08-14T01:30:02.031Z,19.06
2016-08-14T01:31:16.984Z,18.92
2016-08-14T01:32:02.097Z,18.9
2016-08-14T01:33:02.133Z,18.88
2016-08-14T01:34:02.135Z,18.85
2016-08-14T01:35:02.173Z,18.73
2016-08-14T01:36:02.190Z,18.78
2016-08-14T01:37:02.220Z,18.67
2016-08-14T01:38:02.243Z,18.72
2016-08-14T01:39:02.272Z,18.73
2016-08-14T01:40:02.294Z,18.69
2016-08-14T01:42:02.348Z,18.67
2016-08-14T01:44:02.406Z,18.75
2016-08-14T01:46:02.457Z,18.62
2016-08-14T01:47:17.406Z,18.69
2016-08-14T01:48:02.512Z,18.57
2016-08-14T01:49:02.541Z,18.57
2016-08-14T01:50:02.564Z,18.57
2016-08-14T01:51:02.589Z,18.55
2016-08-14T01:52:02.621Z,18.55
2016-08-14T01:53:02.642Z,18.48
2016-08-14T01:54:02.678Z,18.42
2016-08-14T01:55:02.704Z,18.42
2016-08-14T01:57:03.463Z,18.44
2016-08-14T01:58:02.833Z,18.35
2016-08-14T01:59:02.800Z,18.36
2016-08-14T02:00:17.753Z,18.42
2016-08-14T02:01:02.861Z,18.32
2016-08-14T02:02:02.885Z,18.36
2016-08-14T02:03:17.837Z,18.33
2016-08-14T02:04:17.855Z,18.3
2016-08-14T02:05:04.369Z,18.33
2016-08-14T02:06:02.988Z,18.35
2016-08-14T02:07:03.019Z,18.23
2016-08-14T02:08:03.043Z,18.29
2016-08-14T02:09:03.062Z,18.29
2016-08-14T02:10:03.787Z,18.35
2016-08-14T02:11:03.117Z,18.29
2016-08-14T02:12:03.160Z,18.3
2016-08-14T02:13:03.882Z,18.2
2016-08-14T02:14:03.197Z,18.26
2016-08-14T02:15:03.226Z,18.25
2016-08-14T02:16:18.178Z,18.3
2016-08-14T02:17:03.283Z,18.41
2016-08-14T02:18:18.224Z,18.44
2016-08-14T02:19:03.330Z,18.41
2016-08-14T02:20:18.277Z,18.39
2016-08-14T02:21:03.382Z,18.42
2016-08-14T02:22:03.409Z,18.45
2016-08-14T02:24:03.461Z,18.44
2016-08-14T02:25:03.488Z,18.5
2016-08-14T02:26:03.512Z,18.54
2016-08-14T02:27:03.540Z,18.58
2016-08-14T02:28:03.566Z,18.52
2016-08-14T02:29:03.598Z,18.63
2016-08-14T02:30:03.619Z,18.57
2016-08-14T02:31:03.649Z,18.63
2016-08-14T02:32:03.676Z,18.55
2016-08-14T02:33:03.702Z,18.63
2016-08-14T02:34:03.729Z,18.63
2016-08-14T02:35:03.749Z,18.6
2016-08-14T02:36:03.779Z,18.65
2016-08-14T02:37:03.807Z,18.58
2016-08-14T02:38:03.827Z,18.57
2016-08-14T02:39:03.853Z,18.58
2016-08-14T02:40:03.880Z,18.55
2016-08-14T02:41:03.917Z,18.62
2016-08-14T02:42:03.938Z,18.63
2016-08-14T02:43:03.963Z,18.62
2016-08-14T02:44:03.992Z,18.6
2016-08-14T02:45:04.022Z,18.6
2016-08-14T02:46:04.048Z,18.58
2016-08-14T02:48:04.089Z,18.65
2016-08-14T02:49:04.121Z,18.62
2016-08-14T02:50:19.069Z,18.57
2016-08-14T02:51:04.175Z,18.63
2016-08-14T02:52:04.207Z,18.62
2016-08-14T02:53:04.228Z,18.65
2016-08-14T02:54:04.261Z,18.69
2016-08-14T02:55:04.278Z,18.62
2016-08-14T02:56:04.309Z,18.76
2016-08-14T02:57:04.329Z,18.73
2016-08-14T02:58:04.364Z,18.65
2016-08-14T02:59:04.396Z,18.67
2016-08-14T03:00:04.467Z,18.65
2016-08-14T03:01:04.436Z,18.73
2016-08-14T03:02:04.462Z,18.7
2016-08-14T03:03:04.492Z,18.75
2016-08-14T03:04:04.523Z,18.69
2016-08-14T03:05:04.545Z,18.67
2016-08-14T03:06:19.495Z,18.7
2016-08-14T03:07:04.599Z,18.67
2016-08-14T03:08:04.620Z,18.85
2016-08-14T03:09:04.647Z,18.85
2016-08-14T03:10:04.678Z,18.82
2016-08-14T03:11:04.700Z,18.88
2016-08-14T03:12:04.732Z,18.9
2016-08-14T03:13:04.757Z,18.91
2016-08-14T03:14:04.774Z,18.78
2016-08-14T03:15:04.804Z,18.85
2016-08-14T03:16:04.832Z,18.85
2016-08-14T03:17:04.861Z,18.75
2016-08-14T03:18:04.909Z,18.72
2016-08-14T03:19:04.909Z,18.8
2016-08-14T03:20:04.946Z,18.73
2016-08-14T03:21:04.968Z,18.75
2016-08-14T03:22:19.915Z,18.73
2016-08-14T03:23:05.017Z,18.78
2016-08-14T03:24:05.040Z,18.73
2016-08-14T03:25:05.073Z,18.8
2016-08-14T03:26:05.091Z,18.84
2016-08-14T03:27:05.123Z,18.72
2016-08-14T03:29:05.176Z,18.69
2016-08-14T03:30:05.198Z,18.69
2016-08-14T03:31:05.238Z,18.7
2016-08-14T03:32:05.262Z,18.7
2016-08-14T03:33:05.287Z,18.73
2016-08-14T03:34:05.317Z,18.67
2016-08-14T03:35:05.332Z,18.75
2016-08-14T03:36:05.363Z,18.81
2016-08-14T03:37:05.393Z,18.82
2016-08-14T03:38:20.339Z,18.78
2016-08-14T03:39:05.441Z,18.73
2016-08-14T03:40:05.471Z,18.75
2016-08-14T03:41:05.490Z,18.8
2016-08-14T03:42:05.517Z,18.76
2016-08-14T03:43:05.545Z,18.72
2016-08-14T03:44:05.575Z,18.76
2016-08-14T03:45:05.601Z,18.69
2016-08-14T03:46:05.619Z,18.76
2016-08-14T03:47:05.655Z,18.75
2016-08-14T03:48:05.672Z,18.73
2016-08-14T03:49:05.698Z,18.7
2016-08-14T03:51:05.765Z,18.73
2016-08-14T03:52:05.783Z,18.84
2016-08-14T03:53:20.736Z,18.85
2016-08-14T03:54:05.844Z,18.88
2016-08-14T03:55:05.868Z,18.9
2016-08-14T03:56:05.893Z,18.9
2016-08-14T03:57:05.923Z,18.95
2016-08-14T03:58:05.934Z,18.85
2016-08-14T03:59:05.968Z,18.87
2016-08-14T04:00:05.995Z,18.88
2016-08-14T04:02:06.095Z,18.84
2016-08-14T04:03:06.076Z,18.84
2016-08-14T04:04:06.092Z,18.92
2016-08-14T04:05:06.124Z,18.91
2016-08-14T04:06:06.150Z,18.85
2016-08-14T04:07:21.101Z,18.87
2016-08-14T04:08:21.127Z,18.85
2016-08-14T04:09:21.153Z,18.8
2016-08-14T04:10:21.181Z,18.94
2016-08-14T04:11:06.287Z,18.82
2016-08-14T04:12:06.310Z,18.84
2016-08-14T04:13:06.336Z,18.87
2016-08-14T04:14:06.369Z,18.73
2016-08-14T04:15:06.394Z,18.73
2016-08-14T04:16:06.410Z,18.81
2016-08-14T04:17:06.439Z,18.88
2016-08-14T04:18:06.489Z,18.76
2016-08-14T04:19:06.504Z,18.75
2016-08-14T04:20:06.521Z,18.82
2016-08-14T04:21:06.546Z,18.87
2016-08-14T04:22:06.571Z,18.85
2016-08-14T04:23:07.310Z,18.82
2016-08-14T04:24:06.634Z,18.85
2016-08-14T04:25:21.580Z,18.84
2016-08-14T04:26:06.679Z,18.9
2016-08-14T04:27:06.711Z,18.8
2016-08-14T04:28:21.651Z,18.9
2016-08-14T04:29:06.759Z,18.95
2016-08-14T04:30:06.788Z,18.92
2016-08-14T04:31:06.818Z,18.88
2016-08-14T04:32:06.839Z,19.06
2016-08-14T04:33:06.871Z,18.95
2016-08-14T04:34:06.887Z,18.91
2016-08-14T04:35:06.912Z,18.88
2016-08-14T04:36:06.949Z,19.02
2016-08-14T04:37:06.960Z,18.99
2016-08-14T04:38:06.992Z,19.06
2016-08-14T04:39:07.018Z,19.04
2016-08-14T04:40:07.043Z,19.06
2016-08-14T04:41:21.998Z,19.04
2016-08-14T04:42:07.106Z,19.07
2016-08-14T04:43:07.821Z,19.06
2016-08-14T04:44:07.149Z,19.1
2016-08-14T04:45:07.194Z,18.91
2016-08-14T04:46:07.900Z,18.92
2016-08-14T04:47:07.237Z,18.95
2016-08-14T04:48:07.261Z,18.91
2016-08-14T04:49:07.286Z,18.78
2016-08-14T04:50:07.306Z,18.87
2016-08-14T04:51:07.350Z,18.84
2016-08-14T04:52:08.058Z,18.82
2016-08-14T04:53:07.383Z,18.92
2016-08-14T04:54:07.422Z,18.95
2016-08-14T04:56:07.470Z,18.88
2016-08-14T04:57:22.418Z,18.8
2016-08-14T04:58:07.521Z,18.76
2016-08-14T04:59:07.544Z,18.8
2016-08-14T05:00:07.575Z,18.76
2016-08-14T05:01:07.650Z,18.91
2016-08-14T05:04:07.678Z,19.29
2016-08-14T05:05:07.711Z,19.88
2016-08-14T05:06:07.733Z,20.61
2016-08-14T05:07:07.811Z,21.21
2016-08-14T05:08:07.789Z,21.47
2016-08-14T05:09:07.816Z,21.94
2016-08-14T05:10:07.843Z,22.1
2016-08-14T05:11:07.874Z,22.45
2016-08-14T05:12:07.960Z,22.97
2016-08-14T05:13:22.852Z,23.15
2016-08-14T05:14:07.961Z,23.28
2016-08-14T05:15:07.980Z,23.84
2016-08-14T05:16:08.014Z,23.66
2016-08-14T05:17:08.044Z,23.31
2016-08-14T05:18:08.073Z,23.15
2016-08-14T05:19:08.104Z,22.91
2016-08-14T05:20:08.137Z,23.07
2016-08-14T05:21:08.156Z,22.82
2016-08-14T05:24:08.251Z,21.99
2016-08-14T05:25:08.286Z,21.72
2016-08-14T05:27:08.334Z,21.38
2016-08-14T05:28:23.311Z,21.04
2016-08-14T05:29:08.411Z,20.94
2016-08-14T05:30:23.349Z,20.73
2016-08-14T05:31:08.459Z,20.55
2016-08-14T05:32:08.480Z,20.54
2016-08-14T05:33:08.506Z,20.42
2016-08-14T05:34:08.547Z,20.28
2016-08-14T05:35:08.568Z,20.26
2016-08-14T05:37:08.627Z,20.95
2016-08-14T05:38:09.354Z,21.59
2016-08-14T05:39:08.691Z,22.18
2016-08-14T05:40:08.713Z,23.15
2016-08-14T05:41:08.742Z,24.09
2016-08-14T05:42:23.701Z,25.06
2016-08-14T05:43:08.809Z,25.67
2016-08-14T05:44:08.832Z,26.26
2016-08-14T05:45:08.863Z,26.02
2016-08-14T05:46:08.897Z,25.97
2016-08-14T05:47:08.927Z,25.58
2016-08-14T05:48:08.962Z,24.53
2016-08-14T05:49:09.003Z,24.39
2016-08-14T05:50:09.716Z,24.15
2016-08-14T05:51:09.065Z,23.94
2016-08-14T05:52:09.080Z,23.33
2016-08-14T05:53:09.116Z,22.94
2016-08-14T05:54:09.149Z,22.61
2016-08-14T05:55:09.180Z,22.27
2016-08-14T05:56:09.207Z,22.22
2016-08-14T05:57:09.243Z,22.37
2016-08-14T05:58:09.272Z,22.57
2016-08-14T05:59:09.299Z,22.94
2016-08-14T06:00:24.259Z,23.58
2016-08-14T06:01:09.370Z,23.72
2016-08-14T06:03:09.429Z,24.45
2016-08-14T06:04:09.462Z,24.81
2016-08-14T06:05:10.188Z,25
2016-08-14T06:06:09.527Z,24.64
2016-08-14T06:07:09.555Z,24.47
2016-08-14T06:08:09.598Z,24.42
2016-08-14T06:09:09.628Z,24.78
2016-08-14T06:10:09.647Z,24.27
2016-08-14T06:11:09.679Z,23.94
2016-08-14T06:12:10.409Z,23.76
2016-08-14T06:13:09.755Z,24.08
2016-08-14T06:14:09.792Z,23.69
2016-08-14T06:15:09.860Z,23.65
2016-08-14T06:16:24.820Z,23.38
2016-08-14T06:17:24.798Z,23.6
2016-08-14T06:18:09.907Z,24.05
2016-08-14T06:19:09.940Z,24.61
2016-08-14T06:20:09.989Z,24.93
2016-08-14T06:21:10.004Z,25.27
2016-08-14T06:22:10.049Z,24.6
2016-08-14T06:23:10.070Z,24.61
2016-08-14T06:24:10.110Z,25.09
2016-08-14T06:25:10.153Z,24.71
2016-08-14T06:26:10.173Z,25.02
2016-08-14T06:27:10.201Z,24.98
2016-08-14T06:28:10.234Z,25.46
2016-08-14T06:29:25.202Z,25.6
2016-08-14T06:30:10.305Z,25.15
2016-08-14T06:31:10.356Z,25.18
2016-08-14T06:32:25.289Z,25.46
2016-08-14T06:33:10.404Z,26.01
2016-08-14T06:34:10.437Z,26.43
2016-08-14T06:35:10.468Z,26.73
2016-08-14T06:36:10.502Z,26.62
2016-08-14T06:37:10.537Z,27.14
2016-08-14T06:38:10.571Z,27.67
2016-08-14T06:39:10.612Z,27.69
2016-08-14T06:40:10.646Z,27.74
2016-08-14T06:41:10.670Z,27.55
2016-08-14T06:42:10.712Z,26.63
2016-08-14T06:43:10.738Z,27.09
2016-08-14T06:44:10.771Z,26.5
2016-08-14T06:45:10.806Z,26.32
2016-08-14T06:46:10.847Z,25.62
2016-08-14T06:47:10.872Z,25.18
2016-08-14T06:48:25.835Z,24.8
2016-08-14T06:49:10.946Z,24.83
2016-08-14T06:50:10.983Z,24.96
2016-08-14T06:51:11.009Z,24.99
2016-08-14T06:52:11.065Z,25.09
2016-08-14T06:53:11.075Z,25.17
2016-08-14T06:54:11.111Z,25.03
2016-08-14T06:55:11.149Z,25.2
2016-08-14T06:56:11.182Z,25.17
2016-08-14T06:57:11.212Z,25.14
2016-08-14T06:58:11.257Z,25.38
2016-08-14T06:59:11.278Z,25.1
2016-08-14T07:00:26.241Z,25.18
2016-08-14T07:01:11.355Z,25.5
2016-08-14T07:02:11.385Z,26.43
2016-08-14T07:03:26.341Z,26.07
2016-08-14T07:04:11.458Z,26.09
2016-08-14T07:05:11.481Z,25.69
2016-08-14T07:06:11.521Z,25.18
2016-08-14T07:07:11.545Z,25.14
2016-08-14T07:08:11.577Z,25.05
2016-08-14T07:09:11.630Z,24.9
2016-08-14T07:10:11.650Z,24.18
2016-08-14T07:11:11.683Z,23.95
2016-08-14T07:12:11.721Z,23.46
2016-08-14T07:14:11.785Z,23.1
2016-08-14T07:15:26.797Z,24.08
2016-08-14T07:16:11.904Z,24.46
2016-08-14T07:17:11.890Z,24.55
2016-08-14T07:18:11.932Z,24.87
2016-08-14T07:19:11.948Z,24.93
2016-08-14T07:20:11.990Z,24.46
2016-08-14T07:21:26.938Z,24.87
2016-08-14T07:22:12.101Z,25.21
2016-08-14T07:23:12.082Z,25.25
2016-08-14T07:24:12.119Z,24.12
2016-08-14T07:25:12.160Z,23.87
2016-08-14T07:26:12.188Z,23.91
2016-08-14T07:27:12.215Z,24.15
2016-08-14T07:28:12.252Z,24.12
2016-08-14T07:29:12.286Z,24.45
2016-08-14T07:31:12.345Z,24.8
2016-08-14T07:32:12.379Z,25.21
2016-08-14T07:33:12.415Z,25.18
2016-08-14T07:35:27.402Z,24.73
2016-08-14T07:36:12.510Z,24.45
2016-08-14T07:38:12.578Z,23.04
2016-08-14T07:39:12.617Z,22.94
2016-08-14T07:40:12.642Z,23.22
2016-08-14T07:41:12.681Z,23.78
2016-08-14T07:42:12.707Z,24.43
2016-08-14T07:43:12.736Z,24.42
2016-08-14T07:44:13.470Z,24.12
2016-08-14T07:45:12.804Z,24.53
2016-08-14T07:46:12.850Z,24.95
2016-08-14T07:47:27.800Z,24.35
2016-08-14T07:48:12.913Z,24.28
2016-08-14T07:49:12.935Z,24.9
2016-08-14T07:50:12.970Z,24.64
2016-08-14T07:51:27.934Z,24.35
2016-08-14T07:52:13.042Z,24.28
2016-08-14T07:53:27.989Z,25.02
2016-08-14T07:54:13.102Z,25.08
2016-08-14T07:55:13.128Z,25.28
2016-08-14T07:56:13.174Z,25.45
2016-08-14T07:57:13.202Z,25.83
2016-08-14T07:58:13.232Z,26.57
2016-08-14T07:59:13.271Z,27.55
2016-08-14T08:00:13.298Z,27.7
2016-08-14T08:01:13.332Z,27.77
2016-08-14T08:02:13.366Z,27.54
2016-08-14T08:03:13.398Z,27.14
2016-08-14T08:04:13.434Z,26.58
2016-08-14T08:06:13.511Z,25.8
2016-08-14T08:07:28.464Z,25.91
2016-08-14T08:08:13.561Z,26.07
2016-08-14T08:09:13.601Z,25.83
2016-08-14T08:10:13.638Z,25.94
2016-08-14T08:11:13.672Z,25.4
2016-08-14T08:12:13.700Z,25.15
2016-08-14T08:13:13.730Z,25.18
2016-08-14T08:14:13.763Z,24.71
2016-08-14T08:15:13.811Z,24.98
2016-08-14T08:16:13.890Z,24.45
2016-08-14T08:17:13.865Z,24.61
2016-08-14T08:18:13.923Z,24.77
2016-08-14T08:19:13.935Z,24.91
2016-08-14T08:20:13.964Z,25.2
2016-08-14T08:21:14.004Z,25.72
2016-08-14T08:22:14.040Z,26.23
2016-08-14T08:23:28.990Z,26.32
2016-08-14T08:24:14.102Z,26.4
2016-08-14T08:25:14.137Z,26.75
2016-08-14T08:26:14.217Z,26.39
2016-08-14T08:27:14.200Z,26.17
2016-08-14T08:28:14.237Z,26.43
2016-08-14T08:29:14.267Z,26.75
2016-08-14T08:30:14.301Z,26.73
2016-08-14T08:31:14.332Z,27.12
2016-08-14T08:32:14.366Z,27.59
2016-08-14T08:33:14.398Z,27.65
2016-08-14T08:34:14.433Z,27.43
2016-08-14T08:35:14.468Z,26.88
2016-08-14T08:36:29.425Z,26.4
2016-08-14T08:37:14.526Z,26.45
2016-08-14T08:38:29.492Z,26.01
2016-08-14T08:39:29.525Z,26.29
2016-08-14T08:40:14.636Z,26.3
2016-08-14T08:41:29.589Z,26.3
2016-08-14T08:42:14.715Z,25.97
2016-08-14T08:43:14.741Z,25.61
2016-08-14T08:44:14.759Z,25.4
2016-08-14T08:45:14.810Z,25.09
2016-08-14T08:46:14.823Z,25.47
2016-08-14T08:47:14.861Z,25.64
2016-08-14T08:48:14.898Z,25.61
2016-08-14T08:49:14.929Z,25.91
2016-08-14T08:50:14.962Z,26.3
2016-08-14T08:51:15.003Z,26.05
2016-08-14T08:52:15.032Z,25.39
2016-08-14T08:53:15.073Z,25.35
2016-08-14T08:54:15.098Z,25.09
2016-08-14T08:55:15.813Z,25.15
2016-08-14T08:56:15.155Z,24.76
2016-08-14T08:57:15.191Z,24.53
2016-08-14T08:58:15.233Z,24.53
2016-08-14T08:59:30.187Z,24.42
2016-08-14T09:00:15.288Z,24.43
2016-08-14T09:03:15.383Z,23.87
2016-08-14T09:04:15.415Z,24.34
2016-08-14T09:05:15.442Z,23.91
2016-08-14T09:06:30.413Z,24.46
2016-08-14T09:07:15.515Z,24.47
2016-08-14T09:08:30.465Z,24.73
2016-08-14T09:09:15.575Z,25.21
2016-08-14T09:10:30.534Z,25.64
2016-08-14T09:11:15.633Z,26.05
2016-08-14T09:12:15.667Z,25.98
2016-08-14T09:13:15.696Z,25.83
2016-08-14T09:14:15.738Z,25.62
2016-08-14T09:15:15.760Z,25.69
2016-08-14T09:16:15.791Z,25.8
2016-08-14T09:17:15.829Z,25.7
2016-08-14T09:18:15.860Z,25.55
2016-08-14T09:19:15.887Z,26.02
2016-08-14T09:20:15.915Z,26.45
2016-08-14T09:21:15.952Z,26.25
2016-08-14T09:22:16.000Z,26.29
2016-08-14T09:23:16.018Z,26.06
2016-08-14T09:24:30.979Z,25.3
2016-08-14T09:25:16.139Z,25.17
2016-08-14T09:26:31.693Z,24.96
2016-08-14T09:27:16.149Z,25.15
2016-08-14T09:28:31.100Z,25.43
2016-08-14T09:29:16.215Z,25.62
2016-08-14T09:30:16.242Z,25.73
2016-08-14T09:31:16.280Z,25.87
2016-08-14T09:32:16.308Z,25.55
2016-08-14T09:33:16.332Z,25.91
2016-08-14T09:34:16.371Z,26.2
2016-08-14T09:35:16.400Z,26.45
2016-08-14T09:37:16.467Z,26.33
2016-08-14T09:38:16.503Z,26.73
2016-08-14T09:39:31.458Z,26.21
2016-08-14T09:40:16.563Z,26.2
2016-08-14T09:41:31.520Z,25.55
2016-08-14T09:42:31.557Z,25.6
2016-08-14T09:43:31.583Z,25.06
2016-08-14T09:45:16.725Z,25.25
2016-08-14T09:46:16.767Z,25.57
2016-08-14T09:47:16.791Z,25.92
2016-08-14T09:48:16.821Z,26.09
2016-08-14T09:49:16.854Z,26.21
2016-08-14T09:50:16.879Z,26.47
2016-08-14T09:51:16.918Z,26.77
2016-08-14T09:54:17.024Z,27.51
2016-08-14T09:56:17.084Z,27.59
2016-08-14T09:57:17.113Z,27.62
2016-08-14T09:58:32.070Z,27.93
2016-08-14T09:59:32.100Z,28.06
2016-08-14T10:00:17.210Z,28.02
2016-08-14T10:01:17.251Z,27.75
2016-08-14T10:02:17.278Z,27.77
2016-08-14T10:03:17.308Z,27.75
2016-08-14T10:04:17.342Z,26.82
2016-08-14T10:05:17.387Z,26.81
2016-08-14T10:06:17.406Z,27
2016-08-14T10:07:17.434Z,27.22
2016-08-14T10:08:17.474Z,27.17
2016-08-14T10:09:17.501Z,27.12
2016-08-14T10:10:17.536Z,26.94
2016-08-14T10:11:17.567Z,27.43
2016-08-14T10:12:17.602Z,27.46
2016-08-14T10:13:32.554Z,27.66
2016-08-14T10:14:32.587Z,27.84
2016-08-14T10:15:32.622Z,28.04
2016-08-14T10:16:18.421Z,27.75
2016-08-14T10:18:18.494Z,27.47
2016-08-14T10:19:17.827Z,27.75
2016-08-14T10:20:17.941Z,27.94
2016-08-14T10:21:17.897Z,27.85
2016-08-14T10:22:17.932Z,27.31
2016-08-14T10:24:18.049Z,27.34
2016-08-14T10:25:18.077Z,27.21
2016-08-14T10:26:18.054Z,27.36
2016-08-14T10:27:18.086Z,27.62
2016-08-14T10:28:18.124Z,27.46
2016-08-14T10:29:18.154Z,26.58
2016-08-14T10:30:18.184Z,26.55
2016-08-14T10:31:18.216Z,26.8
2016-08-14T10:32:18.258Z,26.37
2016-08-14T10:33:18.277Z,26.07
2016-08-14T10:34:18.319Z,26.3
2016-08-14T10:35:18.350Z,26.23
2016-08-14T10:37:18.404Z,25.64
2016-08-14T10:38:19.144Z,25.35
2016-08-14T10:39:18.490Z,25.43
2016-08-14T10:40:18.501Z,25.28
2016-08-14T10:41:19.231Z,25.23
2016-08-14T10:43:18.592Z,24.61
2016-08-14T10:44:18.636Z,24.45
2016-08-14T10:45:33.590Z,24.76
2016-08-14T10:46:18.698Z,24.69
2016-08-14T10:47:18.734Z,24.67
2016-08-14T10:48:18.756Z,24.87
2016-08-14T10:49:18.793Z,25.05
2016-08-14T10:50:18.811Z,24.99
2016-08-14T10:51:18.847Z,25.06
2016-08-14T10:52:18.883Z,25.09
2016-08-14T10:53:18.907Z,25.06
2016-08-14T10:54:18.941Z,24.64
2016-08-14T10:55:18.981Z,24.78
2016-08-14T10:56:19.004Z,24.24
2016-08-14T10:57:19.728Z,24.25
2016-08-14T10:58:33.992Z,24.55
2016-08-14T10:59:34.022Z,24.58
2016-08-14T11:00:34.053Z,24.42
2016-08-14T11:01:34.083Z,24.62
2016-08-14T11:02:19.189Z,24.65
2016-08-14T11:03:19.223Z,24.69
2016-08-14T11:04:19.252Z,24.99
2016-08-14T11:06:19.314Z,24.95
2016-08-14T11:07:19.353Z,25.09
2016-08-14T11:08:19.373Z,25.27
2016-08-14T11:09:19.410Z,25.32
2016-08-14T11:11:19.461Z,25.36
2016-08-14T11:12:19.504Z,25.55
2016-08-14T11:13:19.529Z,25.45
2016-08-14T11:14:19.572Z,25.18
2016-08-14T11:15:19.587Z,25.08
2016-08-14T11:16:19.625Z,25.05
2016-08-14T11:17:34.571Z,25.45
2016-08-14T11:19:19.711Z,25.95
2016-08-14T11:20:19.748Z,25.82
2016-08-14T11:21:19.779Z,25.9
2016-08-14T11:22:19.831Z,26.1
2016-08-14T11:23:19.836Z,26.02
2016-08-14T11:24:19.866Z,25.4
2016-08-14T11:25:19.904Z,25.08
2016-08-14T11:26:19.925Z,24.84
2016-08-14T11:27:19.960Z,25.03
2016-08-14T11:28:19.997Z,25.18
2016-08-14T11:29:20.032Z,25.45
2016-08-14T11:30:34.979Z,25.3
2016-08-14T11:31:20.131Z,25.39
2016-08-14T11:32:20.114Z,25.45
2016-08-14T11:33:35.067Z,25.35
2016-08-14T11:34:20.230Z,25.5
2016-08-14T11:35:20.208Z,25.46
2016-08-14T11:36:20.237Z,25.7
2016-08-14T11:37:20.262Z,25.33
2016-08-14T11:38:20.302Z,24.96
2016-08-14T11:39:20.329Z,25.14
2016-08-14T11:40:20.354Z,25.33
2016-08-14T11:41:20.395Z,25.38
2016-08-14T11:42:20.423Z,25.13
2016-08-14T11:43:20.448Z,25.28
2016-08-14T11:44:20.480Z,25.47
2016-08-14T11:45:20.514Z,25.46
2016-08-14T11:46:20.540Z,25.36
2016-08-14T11:47:20.573Z,25.3
2016-08-14T11:48:35.531Z,25.39
2016-08-14T11:50:35.588Z,25.69
2016-08-14T11:51:20.698Z,25.52
2016-08-14T11:52:20.727Z,25.72
2016-08-14T11:53:20.756Z,25.72
2016-08-14T11:54:20.802Z,26.05
2016-08-14T11:55:20.819Z,25.9
2016-08-14T11:57:20.883Z,25.72
2016-08-14T11:59:20.940Z,25.82
2016-08-14T12:00:20.973Z,25.88
2016-08-14T12:01:21.004Z,25.85
2016-08-14T12:02:21.038Z,25.97
2016-08-14T12:03:21.061Z,25.9
2016-08-14T12:04:21.102Z,25.8
2016-08-14T12:05:36.051Z,25.91
2016-08-14T12:06:21.158Z,26.13
2016-08-14T12:07:21.190Z,26.28
2016-08-14T12:08:21.215Z,25.6
2016-08-14T12:09:21.257Z,25.46
2016-08-14T12:10:21.284Z,25.55
2016-08-14T12:11:21.315Z,25.76
2016-08-14T12:12:21.355Z,25.99
2016-08-14T12:13:21.376Z,26.48
2016-08-14T12:14:21.405Z,26.45
2016-08-14T12:15:21.435Z,26.47
2016-08-14T12:16:21.471Z,26.4
2016-08-14T12:17:21.501Z,26.36
2016-08-14T12:18:21.522Z,26.5
2016-08-14T12:19:21.556Z,26.52
2016-08-14T12:20:36.508Z,26.44
2016-08-14T12:21:36.543Z,26.55
2016-08-14T12:22:21.647Z,26.48
2016-08-14T12:23:21.684Z,26.32
2016-08-14T12:24:21.714Z,26.3
2016-08-14T12:25:21.735Z,26.17
2016-08-14T12:26:21.773Z,26.3
2016-08-14T12:27:21.803Z,26.32
2016-08-14T12:28:21.831Z,26.05
2016-08-14T12:29:21.864Z,26.12
2016-08-14T12:30:21.896Z,25.54
2016-08-14T12:31:21.931Z,25.2
2016-08-14T12:32:21.951Z,25.17
2016-08-14T12:33:22.684Z,25.2
2016-08-14T12:34:22.067Z,25.02
2016-08-14T12:35:22.053Z,24.46
2016-08-14T12:36:37.004Z,24.58
2016-08-14T12:37:22.826Z,24.25
2016-08-14T12:38:22.146Z,24.2
2016-08-14T12:39:22.172Z,24.4
2016-08-14T12:40:22.208Z,24.52
2016-08-14T12:41:22.229Z,24.42
2016-08-14T12:42:22.267Z,24.5
2016-08-14T12:43:22.308Z,24.64
2016-08-14T12:44:23.025Z,24.57
2016-08-14T12:45:22.354Z,24.76
2016-08-14T12:46:22.381Z,24.85
2016-08-14T12:47:22.416Z,25.13
2016-08-14T12:48:22.444Z,25.23
2016-08-14T12:49:22.476Z,25.21
2016-08-14T12:50:22.505Z,24.61
2016-08-14T12:51:37.459Z,24.76
2016-08-14T12:52:37.493Z,24.91
2016-08-14T12:53:22.597Z,24.98
2016-08-14T12:54:23.321Z,25.1
2016-08-14T12:55:22.658Z,25.08
2016-08-14T12:56:22.693Z,25.2
2016-08-14T12:57:22.716Z,25.15
2016-08-14T12:58:22.748Z,24.76
2016-08-14T12:59:22.772Z,24.78
2016-08-14T13:00:22.812Z,24.91
2016-08-14T13:01:22.831Z,25.21
2016-08-14T13:02:22.870Z,25.14
2016-08-14T13:03:22.902Z,25.27
2016-08-14T13:05:37.881Z,24.93
2016-08-14T13:06:22.986Z,25.03
2016-08-14T13:07:37.943Z,25.28
2016-08-14T13:08:37.971Z,25.36
2016-08-14T13:09:23.079Z,25.47
2016-08-14T13:10:23.110Z,25.42
2016-08-14T13:11:23.135Z,25.4
2016-08-14T13:12:23.164Z,25.21
2016-08-14T13:13:23.198Z,25.39
2016-08-14T13:14:23.226Z,25.33
2016-08-14T13:15:23.260Z,25.09
2016-08-14T13:16:23.285Z,25.08
2016-08-14T13:17:23.324Z,24.9
2016-08-14T13:18:23.340Z,24.57
2016-08-14T13:20:23.417Z,24.46
2016-08-14T13:21:23.432Z,24.42
2016-08-14T13:22:23.471Z,24.52
2016-08-14T13:23:38.425Z,24.52
2016-08-14T13:24:23.532Z,24.37
2016-08-14T13:25:38.479Z,24.43
2016-08-14T13:26:23.587Z,24.45
2016-08-14T13:27:23.622Z,24.15
2016-08-14T13:28:23.658Z,24.22
2016-08-14T13:29:23.682Z,24.18
2016-08-14T13:30:23.711Z,23.93
2016-08-14T13:31:23.749Z,23.87
2016-08-14T13:32:23.769Z,23.83
2016-08-14T13:33:23.798Z,23.78
2016-08-14T13:35:23.860Z,24.4
2016-08-14T13:36:23.901Z,24.67
2016-08-14T13:38:24.002Z,24.46
2016-08-14T13:39:23.978Z,24.45
2016-08-14T13:40:24.004Z,24.43
2016-08-14T13:41:38.956Z,24.4